sensor_id;sensor_type;location;lat;lon;timestamp;P1;durP1;ratioP1;P2;durP2;ratioP2
71810;SDS011;59657;0.000;0.000;2022-07-23T00:00:07;3.30;;;1.77;;
71810;SDS011;59657;0.000;0.000;2022-07-23T00:02:34;2.33;;;1.70;;
71810;SDS011;59657;0.000;0.000;2022-07-23T00:05:01;2.00;;;1.30;;
71810;SDS011;59657;0.000;0.000;2022-07-23T00:07:27;2.75;;;1.67;;
71810;SDS011;59657;0.000;0.000;2022-07-23T00:12:20;1.35;;;1.23;;
71810;SDS011;59657;0.000;0.000;2022-07-23T00:14:47;1.55;;;1.45;;
71810;SDS011;59657;0.000;0.000;2022-07-23T00:17:13;2.08;;;1.45;;
71810;SDS011;59657;0.000;0.000;2022-07-23T00:19:40;1.88;;;1.65;;
71810;SDS011;59657;0.000;0.000;2022-07-23T00:22:06;1.77;;;1.60;;
71810;SDS011;59657;0.000;0.000;2022-07-23T00:24:33;2.17;;;1.30;;
71810;SDS011;59657;0.000;0.000;2022-07-23T00:26:59;2.13;;;1.50;;
71810;SDS011;59657;0.000;0.000;2022-07-23T00:29:26;1.92;;;1.40;;
71810;SDS011;59657;0.000;0.000;2022-07-23T00:31:52;2.65;;;1.73;;
71810;SDS011;59657;0.000;0.000;2022-07-23T00:34:19;2.13;;;1.45;;
71810;SDS011;59657;0.000;0.000;2022-07-23T00:36:45;2.67;;;1.48;;
71810;SDS011;59657;0.000;0.000;2022-07-23T00:39:12;2.47;;;1.42;;
71810;SDS011;59657;0.000;0.000;2022-07-23T00:41:38;2.30;;;1.50;;
71810;SDS011;59657;0.000;0.000;2022-07-23T00:49:24;2.08;;;1.58;;
71810;SDS011;59657;0.000;0.000;2022-07-23T00:51:51;2.45;;;1.70;;
71810;SDS011;59657;0.000;0.000;2022-07-23T00:54:18;1.92;;;1.60;;
71810;SDS011;59657;0.000;0.000;2022-07-23T00:56:45;2.15;;;1.33;;
71810;SDS011;59657;0.000;0.000;2022-07-23T00:59:12;1.80;;;1.40;;
71810;SDS011;59657;0.000;0.000;2022-07-23T01:12:03;1.92;;;1.27;;
71810;SDS011;59657;0.000;0.000;2022-07-23T01:14:30;2.10;;;1.40;;
71810;SDS011;59657;0.000;0.000;2022-07-23T01:16:56;1.80;;;1.48;;
71810;SDS011;59657;0.000;0.000;2022-07-23T01:19:23;2.28;;;1.50;;
71810;SDS011;59657;0.000;0.000;2022-07-23T01:24:16;2.55;;;1.38;;
71810;SDS011;59657;0.000;0.000;2022-07-23T01:26:45;2.60;;;1.63;;
71810;SDS011;59657;0.000;0.000;2022-07-23T01:29:12;1.48;;;1.30;;
71810;SDS011;59657;0.000;0.000;2022-07-23T01:31:38;1.52;;;1.42;;
71810;SDS011;59657;0.000;0.000;2022-07-23T01:34:05;2.25;;;2.03;;
71810;SDS011;59657;0.000;0.000;2022-07-23T01:36:33;1.55;;;1.10;;
71810;SDS011;59657;0.000;0.000;2022-07-23T01:38:59;1.75;;;1.50;;
71810;SDS011;59657;0.000;0.000;2022-07-23T01:41:26;2.13;;;1.80;;
71810;SDS011;59657;0.000;0.000;2022-07-23T01:46:18;2.40;;;1.55;;
71810;SDS011;59657;0.000;0.000;2022-07-23T01:48:45;1.38;;;1.25;;
71810;SDS011;59657;0.000;0.000;2022-07-23T01:51:11;1.92;;;1.45;;
71810;SDS011;59657;0.000;0.000;2022-07-23T01:53:38;2.50;;;1.60;;
71810;SDS011;59657;0.000;0.000;2022-07-23T01:56:04;1.38;;;1.27;;
71810;SDS011;59657;0.000;0.000;2022-07-23T02:00:57;1.50;;;1.40;;
71810;SDS011;59657;0.000;0.000;2022-07-23T02:03:24;2.67;;;1.38;;
71810;SDS011;59657;0.000;0.000;2022-07-23T02:05:51;1.85;;;1.60;;
71810;SDS011;59657;0.000;0.000;2022-07-23T02:10:44;1.92;;;1.50;;
71810;SDS011;59657;0.000;0.000;2022-07-23T02:13:11;1.92;;;1.50;;
71810;SDS011;59657;0.000;0.000;2022-07-23T02:15:37;2.15;;;1.40;;
71810;SDS011;59657;0.000;0.000;2022-07-23T02:18:04;1.55;;;1.42;;
71810;SDS011;59657;0.000;0.000;2022-07-23T02:22:57;2.03;;;1.42;;
71810;SDS011;59657;0.000;0.000;2022-07-23T02:25:23;1.25;;;1.15;;
71810;SDS011;59657;0.000;0.000;2022-07-23T02:27:49;1.27;;;1.13;;
71810;SDS011;59657;0.000;0.000;2022-07-23T02:30:16;1.48;;;1.38;;
71810;SDS011;59657;0.000;0.000;2022-07-23T02:32:42;2.78;;;1.65;;
71810;SDS011;59657;0.000;0.000;2022-07-23T02:35:09;1.33;;;1.23;;
71810;SDS011;59657;0.000;0.000;2022-07-23T02:37:35;1.85;;;1.40;;
71810;SDS011;59657;0.000;0.000;2022-07-23T02:40:02;1.33;;;1.20;;
71810;SDS011;59657;0.000;0.000;2022-07-23T02:44:55;1.33;;;1.13;;
71810;SDS011;59657;0.000;0.000;2022-07-23T02:47:21;1.52;;;1.10;;
71810;SDS011;59657;0.000;0.000;2022-07-23T02:49:47;1.70;;;1.30;;
71810;SDS011;59657;0.000;0.000;2022-07-23T02:52:14;2.10;;;1.35;;
71810;SDS011;59657;0.000;0.000;2022-07-23T02:54:40;1.55;;;1.33;;
71810;SDS011;59657;0.000;0.000;2022-07-23T02:57:07;2.40;;;1.33;;
71810;SDS011;59657;0.000;0.000;2022-07-23T02:59:33;1.70;;;1.27;;
71810;SDS011;59657;0.000;0.000;2022-07-23T03:02:00;1.45;;;1.10;;
71810;SDS011;59657;0.000;0.000;2022-07-23T03:06:52;1.63;;;1.05;;
71810;SDS011;59657;0.000;0.000;2022-07-23T03:09:19;1.30;;;1.15;;
71810;SDS011;59657;0.000;0.000;2022-07-23T03:11:45;1.95;;;1.20;;
71810;SDS011;59657;0.000;0.000;2022-07-23T03:14:12;1.20;;;1.10;;
71810;SDS011;59657;0.000;0.000;2022-07-23T03:16:39;1.48;;;1.30;;
71810;SDS011;59657;0.000;0.000;2022-07-23T03:21:31;2.88;;;1.70;;
71810;SDS011;59657;0.000;0.000;2022-07-23T03:23:59;1.95;;;1.27;;
71810;SDS011;59657;0.000;0.000;2022-07-23T03:26:25;2.40;;;1.40;;
71810;SDS011;59657;0.000;0.000;2022-07-23T03:28:52;1.85;;;1.42;;
71810;SDS011;59657;0.000;0.000;2022-07-23T03:31:18;2.03;;;1.25;;
71810;SDS011;59657;0.000;0.000;2022-07-23T03:33:45;1.75;;;1.25;;
71810;SDS011;59657;0.000;0.000;2022-07-23T03:36:11;1.33;;;1.13;;
71810;SDS011;59657;0.000;0.000;2022-07-23T03:38:38;2.58;;;1.38;;
71810;SDS011;59657;0.000;0.000;2022-07-23T03:41:04;1.65;;;1.33;;
71810;SDS011;59657;0.000;0.000;2022-07-23T03:45:57;1.83;;;1.23;;
71810;SDS011;59657;0.000;0.000;2022-07-23T03:48:23;2.83;;;1.38;;
71810;SDS011;59657;0.000;0.000;2022-07-23T03:50:50;1.17;;;1.00;;
71810;SDS011;59657;0.000;0.000;2022-07-23T03:53:16;1.42;;;1.30;;
71810;SDS011;59657;0.000;0.000;2022-07-23T03:55:43;2.75;;;1.38;;
71810;SDS011;59657;0.000;0.000;2022-07-23T03:58:09;0.95;;;0.90;;
71810;SDS011;59657;0.000;0.000;2022-07-23T04:00:36;2.30;;;1.15;;
71810;SDS011;59657;0.000;0.000;2022-07-23T04:03:02;1.80;;;1.25;;
71810;SDS011;59657;0.000;0.000;2022-07-23T04:05:29;2.50;;;1.65;;
71810;SDS011;59657;0.000;0.000;2022-07-23T04:07:55;1.52;;;1.40;;
71810;SDS011;59657;0.000;0.000;2022-07-23T04:10:22;1.63;;;1.20;;
71810;SDS011;59657;0.000;0.000;2022-07-23T04:12:48;1.38;;;1.10;;
71810;SDS011;59657;0.000;0.000;2022-07-23T04:15:15;1.23;;;1.13;;
71810;SDS011;59657;0.000;0.000;2022-07-23T04:20:09;2.53;;;1.25;;
71810;SDS011;59657;0.000;0.000;2022-07-23T04:22:36;1.05;;;0.95;;
71810;SDS011;59657;0.000;0.000;2022-07-23T04:25:02;1.40;;;1.30;;
71810;SDS011;59657;0.000;0.000;2022-07-23T04:27:29;2.38;;;1.20;;
71810;SDS011;59657;0.000;0.000;2022-07-23T04:29:58;1.33;;;0.98;;
71810;SDS011;59657;0.000;0.000;2022-07-23T04:34:51;1.88;;;1.30;;
71810;SDS011;59657;0.000;0.000;2022-07-23T04:37:17;1.33;;;1.23;;
71810;SDS011;59657;0.000;0.000;2022-07-23T04:42:10;2.25;;;1.02;;
71810;SDS011;59657;0.000;0.000;2022-07-23T04:47:03;2.03;;;1.30;;
71810;SDS011;59657;0.000;0.000;2022-07-23T04:49:29;1.45;;;1.02;;
71810;SDS011;59657;0.000;0.000;2022-07-23T04:51:55;0.95;;;0.95;;
71810;SDS011;59657;0.000;0.000;2022-07-23T04:54:22;1.63;;;1.20;;
71810;SDS011;59657;0.000;0.000;2022-07-23T04:56:48;1.48;;;1.25;;
71810;SDS011;59657;0.000;0.000;2022-07-23T05:01:41;1.65;;;1.42;;
71810;SDS011;59657;0.000;0.000;2022-07-23T05:06:34;1.30;;;0.80;;
71810;SDS011;59657;0.000;0.000;2022-07-23T05:09:00;1.33;;;1.05;;
71810;SDS011;59657;0.000;0.000;2022-07-23T05:13:53;1.48;;;1.05;;
71810;SDS011;59657;0.000;0.000;2022-07-23T05:18:45;1.50;;;0.88;;
71810;SDS011;59657;0.000;0.000;2022-07-23T05:21:12;1.20;;;1.10;;
71810;SDS011;59657;0.000;0.000;2022-07-23T05:26:05;1.88;;;1.23;;
71810;SDS011;59657;0.000;0.000;2022-07-23T05:28:31;1.55;;;1.25;;
71810;SDS011;59657;0.000;0.000;2022-07-23T05:30:58;1.27;;;1.00;;
71810;SDS011;59657;0.000;0.000;2022-07-23T05:35:50;1.92;;;1.25;;
71810;SDS011;59657;0.000;0.000;2022-07-23T05:38:17;2.70;;;1.30;;
71810;SDS011;59657;0.000;0.000;2022-07-23T05:40:43;1.35;;;1.15;;
71810;SDS011;59657;0.000;0.000;2022-07-23T05:43:10;3.05;;;1.42;;
71810;SDS011;59657;0.000;0.000;2022-07-23T05:48:02;2.22;;;1.33;;
71810;SDS011;59657;0.000;0.000;2022-07-23T05:50:29;1.27;;;1.17;;
71810;SDS011;59657;0.000;0.000;2022-07-23T05:55:22;1.92;;;1.52;;
71810;SDS011;59657;0.000;0.000;2022-07-23T05:57:48;2.47;;;1.30;;
71810;SDS011;59657;0.000;0.000;2022-07-23T06:00:15;1.20;;;1.08;;
71810;SDS011;59657;0.000;0.000;2022-07-23T06:02:41;2.35;;;1.30;;
71810;SDS011;59657;0.000;0.000;2022-07-23T06:07:34;1.65;;;1.17;;
71810;SDS011;59657;0.000;0.000;2022-07-23T06:10:01;1.10;;;1.10;;
71810;SDS011;59657;0.000;0.000;2022-07-23T06:14:53;2.15;;;1.02;;
71810;SDS011;59657;0.000;0.000;2022-07-23T06:17:20;1.92;;;1.20;;
71810;SDS011;59657;0.000;0.000;2022-07-23T06:22:12;2.22;;;1.30;;
71810;SDS011;59657;0.000;0.000;2022-07-23T06:27:05;1.35;;;1.30;;
71810;SDS011;59657;0.000;0.000;2022-07-23T06:29:31;1.55;;;1.20;;
71810;SDS011;59657;0.000;0.000;2022-07-23T06:31:58;1.45;;;1.15;;
71810;SDS011;59657;0.000;0.000;2022-07-23T06:34:25;1.75;;;1.48;;
71810;SDS011;59657;0.000;0.000;2022-07-23T06:39:17;1.70;;;1.15;;
71810;SDS011;59657;0.000;0.000;2022-07-23T06:41:44;1.58;;;1.30;;
71810;SDS011;59657;0.000;0.000;2022-07-23T06:44:10;2.50;;;1.30;;
71810;SDS011;59657;0.000;0.000;2022-07-23T06:49:03;2.05;;;1.42;;
71810;SDS011;59657;0.000;0.000;2022-07-23T06:53:56;1.42;;;1.33;;
71810;SDS011;59657;0.000;0.000;2022-07-23T06:58:48;1.45;;;1.20;;
71810;SDS011;59657;0.000;0.000;2022-07-23T07:01:15;2.15;;;1.38;;
71810;SDS011;59657;0.000;0.000;2022-07-23T07:03:41;2.45;;;1.27;;
71810;SDS011;59657;0.000;0.000;2022-07-23T07:06:08;1.52;;;1.20;;
71810;SDS011;59657;0.000;0.000;2022-07-23T07:08:35;1.55;;;1.17;;
71810;SDS011;59657;0.000;0.000;2022-07-23T07:13:28;1.58;;;1.33;;
71810;SDS011;59657;0.000;0.000;2022-07-23T07:15:54;1.63;;;1.10;;
71810;SDS011;59657;0.000;0.000;2022-07-23T07:20:47;1.60;;;1.30;;
71810;SDS011;59657;0.000;0.000;2022-07-23T07:25:40;1.83;;;1.40;;
71810;SDS011;59657;0.000;0.000;2022-07-23T07:28:06;1.80;;;1.35;;
71810;SDS011;59657;0.000;0.000;2022-07-23T07:32:59;3.05;;;1.48;;
71810;SDS011;59657;0.000;0.000;2022-07-23T07:37:52;2.75;;;1.50;;
71810;SDS011;59657;0.000;0.000;2022-07-23T07:42:46;1.50;;;0.93;;
71810;SDS011;59657;0.000;0.000;2022-07-23T07:45:13;2.25;;;1.10;;
71810;SDS011;59657;0.000;0.000;2022-07-23T07:47:40;1.88;;;1.23;;
71810;SDS011;59657;0.000;0.000;2022-07-23T07:50:07;1.25;;;1.15;;
71810;SDS011;59657;0.000;0.000;2022-07-23T07:52:35;2.58;;;1.27;;
71810;SDS011;59657;0.000;0.000;2022-07-23T07:55:02;2.42;;;1.80;;
71810;SDS011;59657;0.000;0.000;2022-07-23T07:57:29;2.78;;;1.55;;
71810;SDS011;59657;0.000;0.000;2022-07-23T08:02:22;2.58;;;1.67;;
71810;SDS011;59657;0.000;0.000;2022-07-23T08:04:48;1.00;;;0.93;;
71810;SDS011;59657;0.000;0.000;2022-07-23T08:09:41;1.63;;;1.42;;
71810;SDS011;59657;0.000;0.000;2022-07-23T08:12:08;1.77;;;1.40;;
71810;SDS011;59657;0.000;0.000;2022-07-23T08:14:34;1.95;;;1.30;;
71810;SDS011;59657;0.000;0.000;2022-07-23T08:17:01;1.42;;;1.33;;
71810;SDS011;59657;0.000;0.000;2022-07-23T08:21:53;1.58;;;1.17;;
71810;SDS011;59657;0.000;0.000;2022-07-23T08:24:20;1.20;;;1.10;;
71810;SDS011;59657;0.000;0.000;2022-07-23T08:26:47;1.58;;;1.23;;
71810;SDS011;59657;0.000;0.000;2022-07-23T08:29:13;1.45;;;1.23;;
71810;SDS011;59657;0.000;0.000;2022-07-23T08:31:40;2.25;;;1.45;;
71810;SDS011;59657;0.000;0.000;2022-07-23T08:36:32;1.25;;;1.00;;
71810;SDS011;59657;0.000;0.000;2022-07-23T08:38:59;1.35;;;1.20;;
71810;SDS011;59657;0.000;0.000;2022-07-23T08:41:28;0.98;;;0.95;;
71810;SDS011;59657;0.000;0.000;2022-07-23T08:46:21;1.65;;;1.35;;
71810;SDS011;59657;0.000;0.000;2022-07-23T08:48:49;1.70;;;1.30;;
71810;SDS011;59657;0.000;0.000;2022-07-23T08:51:16;1.17;;;1.02;;
71810;SDS011;59657;0.000;0.000;2022-07-23T08:53:43;1.13;;;1.00;;
71810;SDS011;59657;0.000;0.000;2022-07-23T08:56:10;1.30;;;1.20;;
71810;SDS011;59657;0.000;0.000;2022-07-23T08:58:37;1.13;;;1.00;;
71810;SDS011;59657;0.000;0.000;2022-07-23T09:03:31;1.25;;;1.15;;
71810;SDS011;59657;0.000;0.000;2022-07-23T09:05:58;2.45;;;1.27;;
71810;SDS011;59657;0.000;0.000;2022-07-23T09:08:43;1.52;;;1.05;;
71810;SDS011;59657;0.000;0.000;2022-07-23T09:11:12;1.85;;;1.30;;
71810;SDS011;59657;0.000;0.000;2022-07-23T09:13:42;1.40;;;1.30;;
71810;SDS011;59657;0.000;0.000;2022-07-23T09:16:17;2.10;;;1.52;;
71810;SDS011;59657;0.000;0.000;2022-07-23T09:18:46;1.92;;;1.30;;
71810;SDS011;59657;0.000;0.000;2022-07-23T09:23:58;1.33;;;1.10;;
71810;SDS011;59657;0.000;0.000;2022-07-23T09:26:30;1.33;;;1.23;;
71810;SDS011;59657;0.000;0.000;2022-07-23T09:29:02;2.08;;;1.30;;
71810;SDS011;59657;0.000;0.000;2022-07-23T09:31:32;1.65;;;1.40;;
71810;SDS011;59657;0.000;0.000;2022-07-23T09:34:07;1.42;;;1.10;;
71810;SDS011;59657;0.000;0.000;2022-07-23T09:36:33;1.55;;;1.40;;
71810;SDS011;59657;0.000;0.000;2022-07-23T09:39:00;1.92;;;1.52;;
71810;SDS011;59657;0.000;0.000;2022-07-23T09:41:29;1.98;;;1.40;;
71810;SDS011;59657;0.000;0.000;2022-07-23T09:44:05;2.13;;;1.38;;
71810;SDS011;59657;0.000;0.000;2022-07-23T09:46:32;1.10;;;1.10;;
71810;SDS011;59657;0.000;0.000;2022-07-23T09:48:59;1.25;;;1.10;;
71810;SDS011;59657;0.000;0.000;2022-07-23T09:51:44;1.55;;;1.15;;
71810;SDS011;59657;0.000;0.000;2022-07-23T09:54:20;1.25;;;1.15;;
71810;SDS011;59657;0.000;0.000;2022-07-23T09:56:48;1.55;;;1.25;;
71810;SDS011;59657;0.000;0.000;2022-07-23T09:59:16;1.55;;;1.10;;
71810;SDS011;59657;0.000;0.000;2022-07-23T10:01:44;1.23;;;1.13;;
71810;SDS011;59657;0.000;0.000;2022-07-23T10:04:11;1.50;;;1.40;;
71810;SDS011;59657;0.000;0.000;2022-07-23T10:06:39;1.15;;;1.00;;
71810;SDS011;59657;0.000;0.000;2022-07-23T10:09:06;1.23;;;1.10;;
71810;SDS011;59657;0.000;0.000;2022-07-23T10:11:34;0.90;;;0.90;;
71810;SDS011;59657;0.000;0.000;2022-07-23T10:14:02;1.20;;;1.10;;
71810;SDS011;59657;0.000;0.000;2022-07-23T10:16:30;1.65;;;1.20;;
71810;SDS011;59657;0.000;0.000;2022-07-23T10:18:57;1.08;;;1.08;;
71810;SDS011;59657;0.000;0.000;2022-07-23T10:26:36;1.63;;;1.10;;
71810;SDS011;59657;0.000;0.000;2022-07-23T10:29:12;1.58;;;0.88;;
71810;SDS011;59657;0.000;0.000;2022-07-23T10:34:30;1.25;;;1.10;;
71810;SDS011;59657;0.000;0.000;2022-07-23T10:37:01;1.50;;;1.30;;
71810;SDS011;59657;0.000;0.000;2022-07-23T10:39:32;2.30;;;1.10;;
71810;SDS011;59657;0.000;0.000;2022-07-23T10:42:15;1.20;;;1.10;;
71810;SDS011;59657;0.000;0.000;2022-07-23T10:44:43;0.95;;;0.73;;
71810;SDS011;59657;0.000;0.000;2022-07-23T10:47:10;1.52;;;1.42;;
71810;SDS011;59657;0.000;0.000;2022-07-23T10:49:53;1.63;;;1.13;;
71810;SDS011;59657;0.000;0.000;2022-07-23T10:54:51;1.85;;;1.38;;
71810;SDS011;59657;0.000;0.000;2022-07-23T10:57:19;1.90;;;0.90;;
71810;SDS011;59657;0.000;0.000;2022-07-23T11:02:37;1.10;;;0.98;;
71810;SDS011;59657;0.000;0.000;2022-07-23T11:05:05;1.60;;;1.00;;
71810;SDS011;59657;0.000;0.000;2022-07-23T11:07:32;1.23;;;1.05;;
71810;SDS011;59657;0.000;0.000;2022-07-23T11:09:59;1.58;;;1.48;;
71810;SDS011;59657;0.000;0.000;2022-07-23T11:12:31;0.88;;;0.88;;
71810;SDS011;59657;0.000;0.000;2022-07-23T11:15:03;1.08;;;0.82;;
71810;SDS011;59657;0.000;0.000;2022-07-23T11:17:32;1.00;;;1.00;;
71810;SDS011;59657;0.000;0.000;2022-07-23T11:22:46;1.77;;;1.27;;
71810;SDS011;59657;0.000;0.000;2022-07-23T11:25:14;1.58;;;1.17;;
71810;SDS011;59657;0.000;0.000;2022-07-23T11:27:54;1.20;;;1.08;;
71810;SDS011;59657;0.000;0.000;2022-07-23T11:35:59;1.77;;;1.33;;
71810;SDS011;59657;0.000;0.000;2022-07-23T11:38:27;1.60;;;1.00;;
71810;SDS011;59657;0.000;0.000;2022-07-23T11:40:56;1.83;;;1.08;;
71810;SDS011;59657;0.000;0.000;2022-07-23T11:43:23;1.42;;;1.08;;
71810;SDS011;59657;0.000;0.000;2022-07-23T11:45:53;1.13;;;1.02;;
71810;SDS011;59657;0.000;0.000;2022-07-23T11:48:21;1.00;;;0.90;;
71810;SDS011;59657;0.000;0.000;2022-07-23T11:50:48;1.23;;;1.13;;
71810;SDS011;59657;0.000;0.000;2022-07-23T11:55:54;1.52;;;1.10;;
71810;SDS011;59657;0.000;0.000;2022-07-23T11:58:20;1.15;;;1.02;;
71810;SDS011;59657;0.000;0.000;2022-07-23T12:00:47;1.23;;;0.90;;
71810;SDS011;59657;0.000;0.000;2022-07-23T12:03:16;1.10;;;1.10;;
71810;SDS011;59657;0.000;0.000;2022-07-23T12:05:42;0.90;;;0.90;;
71810;SDS011;59657;0.000;0.000;2022-07-23T12:08:09;1.17;;;0.95;;
71810;SDS011;59657;0.000;0.000;2022-07-23T12:10:37;1.10;;;1.00;;
71810;SDS011;59657;0.000;0.000;2022-07-23T12:13:05;1.50;;;1.05;;
71810;SDS011;59657;0.000;0.000;2022-07-23T12:15:34;1.58;;;1.20;;
71810;SDS011;59657;0.000;0.000;2022-07-23T12:18:03;0.93;;;0.93;;
71810;SDS011;59657;0.000;0.000;2022-07-23T12:20:30;1.23;;;0.90;;
71810;SDS011;59657;0.000;0.000;2022-07-23T12:22:59;0.82;;;0.82;;
71810;SDS011;59657;0.000;0.000;2022-07-23T12:25:27;1.75;;;1.15;;
71810;SDS011;59657;0.000;0.000;2022-07-23T12:28:04;0.88;;;0.88;;
71810;SDS011;59657;0.000;0.000;2022-07-23T12:30:33;0.98;;;0.98;;
71810;SDS011;59657;0.000;0.000;2022-07-23T12:33:00;1.25;;;0.80;;
71810;SDS011;59657;0.000;0.000;2022-07-23T12:35:32;0.88;;;0.75;;
71810;SDS011;59657;0.000;0.000;2022-07-23T12:38:00;1.27;;;1.00;;
71810;SDS011;59657;0.000;0.000;2022-07-23T12:40:29;0.90;;;0.73;;
71810;SDS011;59657;0.000;0.000;2022-07-23T12:43:00;1.58;;;1.20;;
71810;SDS011;59657;0.000;0.000;2022-07-23T12:45:28;1.85;;;0.90;;
71810;SDS011;59657;0.000;0.000;2022-07-23T12:47:57;0.57;;;0.57;;
71810;SDS011;59657;0.000;0.000;2022-07-23T12:53:06;0.70;;;0.70;;
71810;SDS011;59657;0.000;0.000;2022-07-23T12:55:33;0.65;;;0.65;;
71810;SDS011;59657;0.000;0.000;2022-07-23T12:58:11;1.15;;;0.70;;
71810;SDS011;59657;0.000;0.000;2022-07-23T13:00:56;0.93;;;0.85;;
71810;SDS011;59657;0.000;0.000;2022-07-23T13:03:23;0.77;;;0.77;;
71810;SDS011;59657;0.000;0.000;2022-07-23T13:05:50;0.85;;;0.85;;
71810;SDS011;59657;0.000;0.000;2022-07-23T13:08:17;0.77;;;0.73;;
71810;SDS011;59657;0.000;0.000;2022-07-23T13:13:13;0.80;;;0.75;;
71810;SDS011;59657;0.000;0.000;2022-07-23T13:15:40;0.93;;;0.52;;
71810;SDS011;59657;0.000;0.000;2022-07-23T13:18:06;0.60;;;0.47;;
71810;SDS011;59657;0.000;0.000;2022-07-23T13:20:33;1.08;;;0.73;;
71810;SDS011;59657;0.000;0.000;2022-07-23T13:22:59;1.08;;;0.90;;
71810;SDS011;59657;0.000;0.000;2022-07-23T13:25:26;0.52;;;0.52;;
71810;SDS011;59657;0.000;0.000;2022-07-23T13:27:53;1.10;;;0.80;;
71810;SDS011;59657;0.000;0.000;2022-07-23T13:30:19;0.80;;;0.80;;
71810;SDS011;59657;0.000;0.000;2022-07-23T13:32:47;0.55;;;0.52;;
71810;SDS011;59657;0.000;0.000;2022-07-23T13:35:13;0.70;;;0.52;;
71810;SDS011;59657;0.000;0.000;2022-07-23T13:37:40;0.57;;;0.50;;
71810;SDS011;59657;0.000;0.000;2022-07-23T13:40:07;1.20;;;0.47;;
71810;SDS011;59657;0.000;0.000;2022-07-23T13:42:33;0.70;;;0.50;;
71810;SDS011;59657;0.000;0.000;2022-07-23T13:47:26;0.60;;;0.60;;
71810;SDS011;59657;0.000;0.000;2022-07-23T13:49:52;0.50;;;0.50;;
71810;SDS011;59657;0.000;0.000;2022-07-23T13:52:19;0.95;;;0.80;;
71810;SDS011;59657;0.000;0.000;2022-07-23T13:54:45;0.80;;;0.80;;
71810;SDS011;59657;0.000;0.000;2022-07-23T13:57:12;0.70;;;0.70;;
71810;SDS011;59657;0.000;0.000;2022-07-23T13:59:38;1.45;;;0.63;;
71810;SDS011;59657;0.000;0.000;2022-07-23T14:02:05;0.50;;;0.30;;
71810;SDS011;59657;0.000;0.000;2022-07-23T14:04:32;0.60;;;0.50;;
71810;SDS011;59657;0.000;0.000;2022-07-23T14:06:58;0.85;;;0.73;;
71810;SDS011;59657;0.000;0.000;2022-07-23T14:09:25;1.58;;;0.55;;
71810;SDS011;59657;0.000;0.000;2022-07-23T14:14:17;0.43;;;0.40;;
71810;SDS011;59657;0.000;0.000;2022-07-23T14:19:10;0.90;;;0.57;;
71810;SDS011;59657;0.000;0.000;2022-07-23T14:21:37;0.80;;;0.80;;
71810;SDS011;59657;0.000;0.000;2022-07-23T14:24:04;0.80;;;0.80;;
71810;SDS011;59657;0.000;0.000;2022-07-23T14:28:56;0.45;;;0.45;;
71810;SDS011;59657;0.000;0.000;2022-07-23T14:31:23;0.70;;;0.70;;
71810;SDS011;59657;0.000;0.000;2022-07-23T14:33:49;0.60;;;0.60;;
71810;SDS011;59657;0.000;0.000;2022-07-23T14:38:42;1.20;;;1.20;;
71810;SDS011;59657;0.000;0.000;2022-07-23T14:41:08;0.57;;;0.57;;
71810;SDS011;59657;0.000;0.000;2022-07-23T14:43:36;1.00;;;0.88;;
71810;SDS011;59657;0.000;0.000;2022-07-23T14:46:03;0.50;;;0.50;;
71810;SDS011;59657;0.000;0.000;2022-07-23T14:50:55;0.57;;;0.50;;
71810;SDS011;59657;0.000;0.000;2022-07-23T14:53:22;0.50;;;0.25;;
71810;SDS011;59657;0.000;0.000;2022-07-23T14:55:48;0.40;;;0.40;;
71810;SDS011;59657;0.000;0.000;2022-07-23T15:00:41;0.63;;;0.32;;
71810;SDS011;59657;0.000;0.000;2022-07-23T15:03:07;0.65;;;0.50;;
71810;SDS011;59657;0.000;0.000;2022-07-23T15:05:34;1.08;;;0.50;;
71810;SDS011;59657;0.000;0.000;2022-07-23T15:08:01;0.28;;;0.28;;
71810;SDS011;59657;0.000;0.000;2022-07-23T15:12:53;1.10;;;0.60;;
71810;SDS011;59657;0.000;0.000;2022-07-23T15:15:20;0.30;;;0.30;;
71810;SDS011;59657;0.000;0.000;2022-07-23T15:20:12;1.13;;;0.70;;
71810;SDS011;59657;0.000;0.000;2022-07-23T15:22:39;0.40;;;0.40;;
71810;SDS011;59657;0.000;0.000;2022-07-23T15:27:32;0.57;;;0.50;;
71810;SDS011;59657;0.000;0.000;2022-07-23T15:29:58;1.05;;;0.52;;
71810;SDS011;59657;0.000;0.000;2022-07-23T15:34:53;1.52;;;0.55;;
71810;SDS011;59657;0.000;0.000;2022-07-23T15:37:19;0.70;;;0.40;;
71810;SDS011;59657;0.000;0.000;2022-07-23T15:39:48;0.70;;;0.70;;
71810;SDS011;59657;0.000;0.000;2022-07-23T15:42:15;0.22;;;0.15;;
71810;SDS011;59657;0.000;0.000;2022-07-23T15:44:42;0.52;;;0.52;;
71810;SDS011;59657;0.000;0.000;2022-07-23T15:47:12;1.00;;;0.80;;
71810;SDS011;59657;0.000;0.000;2022-07-23T15:49:39;0.65;;;0.50;;
71810;SDS011;59657;0.000;0.000;2022-07-23T15:54:32;1.02;;;0.60;;
71810;SDS011;59657;0.000;0.000;2022-07-23T15:56:58;0.93;;;0.63;;
71810;SDS011;59657;0.000;0.000;2022-07-23T15:59:24;2.08;;;0.98;;
71810;SDS011;59657;0.000;0.000;2022-07-23T16:01:51;0.80;;;0.80;;
71810;SDS011;59657;0.000;0.000;2022-07-23T16:04:17;0.60;;;0.60;;
71810;SDS011;59657;0.000;0.000;2022-07-23T16:06:44;0.50;;;0.50;;
71810;SDS011;59657;0.000;0.000;2022-07-23T16:09:10;0.90;;;0.90;;
71810;SDS011;59657;0.000;0.000;2022-07-23T16:14:03;0.70;;;0.70;;
71810;SDS011;59657;0.000;0.000;2022-07-23T16:16:29;0.50;;;0.50;;
71810;SDS011;59657;0.000;0.000;2022-07-23T16:18:56;0.82;;;0.82;;
71810;SDS011;59657;0.000;0.000;2022-07-23T16:21:23;0.40;;;0.40;;
71810;SDS011;59657;0.000;0.000;2022-07-23T16:23:50;0.47;;;0.45;;
71810;SDS011;59657;0.000;0.000;2022-07-23T16:26:17;0.75;;;0.50;;
71810;SDS011;59657;0.000;0.000;2022-07-23T16:28:45;0.60;;;0.60;;
71810;SDS011;59657;0.000;0.000;2022-07-23T16:31:12;0.52;;;0.52;;
71810;SDS011;59657;0.000;0.000;2022-07-23T16:36:05;0.90;;;0.68;;
71810;SDS011;59657;0.000;0.000;2022-07-23T16:38:33;0.47;;;0.47;;
71810;SDS011;59657;0.000;0.000;2022-07-23T16:41:00;0.85;;;0.80;;
71810;SDS011;59657;0.000;0.000;2022-07-23T16:43:26;0.80;;;0.80;;
71810;SDS011;59657;0.000;0.000;2022-07-23T16:45:53;0.65;;;0.63;;
71810;SDS011;59657;0.000;0.000;2022-07-23T16:48:19;0.47;;;0.47;;
71810;SDS011;59657;0.000;0.000;2022-07-23T16:53:13;0.85;;;0.85;;
71810;SDS011;59657;0.000;0.000;2022-07-23T16:58:05;0.38;;;0.38;;
71810;SDS011;59657;0.000;0.000;2022-07-23T17:00:32;0.70;;;0.65;;
71810;SDS011;59657;0.000;0.000;2022-07-23T17:02:58;0.50;;;0.50;;
71810;SDS011;59657;0.000;0.000;2022-07-23T17:07:51;0.40;;;0.40;;
71810;SDS011;59657;0.000;0.000;2022-07-23T17:10:19;0.40;;;0.40;;
71810;SDS011;59657;0.000;0.000;2022-07-23T17:12:46;0.32;;;0.32;;
71810;SDS011;59657;0.000;0.000;2022-07-23T17:15:14;0.77;;;0.77;;
71810;SDS011;59657;0.000;0.000;2022-07-23T17:20:07;0.82;;;0.55;;
71810;SDS011;59657;0.000;0.000;2022-07-23T17:22:34;1.05;;;1.05;;
71810;SDS011;59657;0.000;0.000;2022-07-23T17:25:01;0.40;;;0.40;;
71810;SDS011;59657;0.000;0.000;2022-07-23T17:27:27;0.82;;;0.82;;
71810;SDS011;59657;0.000;0.000;2022-07-23T17:32:20;1.52;;;0.77;;
71810;SDS011;59657;0.000;0.000;2022-07-23T17:37:13;0.57;;;0.57;;
71810;SDS011;59657;0.000;0.000;2022-07-23T17:39:40;0.75;;;0.63;;
71810;SDS011;59657;0.000;0.000;2022-07-23T17:42:06;0.40;;;0.40;;
71810;SDS011;59657;0.000;0.000;2022-07-23T17:46:59;0.45;;;0.45;;
71810;SDS011;59657;0.000;0.000;2022-07-23T17:51:51;0.90;;;0.85;;
71810;SDS011;59657;0.000;0.000;2022-07-23T17:54:18;0.68;;;0.68;;
71810;SDS011;59657;0.000;0.000;2022-07-23T17:59:11;0.70;;;0.70;;
71810;SDS011;59657;0.000;0.000;2022-07-23T18:04:03;0.52;;;0.40;;
71810;SDS011;59657;0.000;0.000;2022-07-23T18:06:30;0.60;;;0.40;;
71810;SDS011;59657;0.000;0.000;2022-07-23T18:11:22;0.35;;;0.35;;
71810;SDS011;59657;0.000;0.000;2022-07-23T18:16:15;0.57;;;0.57;;
71810;SDS011;59657;0.000;0.000;2022-07-23T18:21:08;0.63;;;0.63;;
71810;SDS011;59657;0.000;0.000;2022-07-23T18:26:00;0.60;;;0.60;;
71810;SDS011;59657;0.000;0.000;2022-07-23T18:30:53;0.60;;;0.60;;
71810;SDS011;59657;0.000;0.000;2022-07-23T18:35:46;0.68;;;0.47;;
71810;SDS011;59657;0.000;0.000;2022-07-23T18:38:12;0.45;;;0.45;;
71810;SDS011;59657;0.000;0.000;2022-07-23T18:43:05;0.57;;;0.57;;
71810;SDS011;59657;0.000;0.000;2022-07-23T18:45:32;0.85;;;0.60;;